AAL1664 KTPA-KPHL
Flight info
| Callsign | AAL1664 |
|---|---|
| Flight time | N/A |
| Altitude | 35000 |
| Route | BAYPO2 CAMJO Q99 PEETT BBDOL PAATS4 |
| Aircraft | A320/M-SDE3FGHIRWY/LB1 |
Departure
| Time | 2026-05-04 23:20 |
|---|---|
| Airport | Tampa International Airport (KTPA) |
Arrival
| Time | N/A |
|---|---|
| Airport | Philadelphia International Airport (KPHL) |
| Time | Latitude | Longitude | Altitude | Speed | Heading |
|---|---|---|---|---|---|
| 2026-05-04 23:03 | 27.97993 | -82.53874 | 36 ft | 0 kts | 92° |
| 2026-05-04 23:09 | 27.97993 | -82.53884 | 30 ft | 3 kts | 97° |
| 2026-05-04 23:09 | 27.97995 | -82.53904 | 30 ft | 3 kts | 104° |
| 2026-05-04 23:09 | 27.98000 | -82.53923 | 27 ft | 3 kts | 104° |
| 2026-05-04 23:10 | 27.98004 | -82.53943 | 27 ft | 3 kts | 125° |
| 2026-05-04 23:10 | 27.98016 | -82.53957 | 30 ft | 2 kts | 141° |
| 2026-05-04 23:10 | 27.98031 | -82.53968 | 27 ft | 3 kts | 168° |
| 2026-05-04 23:10 | 27.98040 | -82.53969 | 27 ft | 0 kts | 178° |
| 2026-05-04 23:13 | 27.98017 | -82.53968 | 30 ft | 7 kts | 178° |
| 2026-05-04 23:13 | 27.97976 | -82.53970 | 24 ft | 5 kts | 182° |
| 2026-05-04 23:14 | 27.97939 | -82.53971 | 23 ft | 6 kts | 182° |
| 2026-05-04 23:14 | 27.97877 | -82.53974 | 21 ft | 9 kts | 182° |
| 2026-05-04 23:14 | 27.97794 | -82.53977 | 21 ft | 14 kts | 181° |
| 2026-05-04 23:14 | 27.97705 | -82.53979 | 23 ft | 12 kts | 181° |
| 2026-05-04 23:15 | 27.97634 | -82.53982 | 23 ft | 9 kts | 184° |
| 2026-05-04 23:15 | 27.97576 | -82.53986 | 22 ft | 8 kts | 182° |
| 2026-05-04 23:15 | 27.97493 | -82.53989 | 22 ft | 16 kts | 181° |
| 2026-05-04 23:15 | 27.97384 | -82.54004 | 23 ft | 15 kts | 209° |
| 2026-05-04 23:16 | 27.97321 | -82.54066 | 24 ft | 10 kts | 211° |
| 2026-05-04 23:16 | 27.97263 | -82.54083 | 24 ft | 8 kts | 186° |
| 2026-05-04 23:16 | 27.97213 | -82.54084 | 25 ft | 9 kts | 180° |
| 2026-05-04 23:16 | 27.97135 | -82.54084 | 26 ft | 13 kts | 180° |
| 2026-05-04 23:17 | 27.97037 | -82.54086 | 27 ft | 15 kts | 181° |
| 2026-05-04 23:17 | 27.96933 | -82.54091 | 27 ft | 15 kts | 181° |
| 2026-05-04 23:17 | 27.96815 | -82.54096 | 24 ft | 19 kts | 182° |
| 2026-05-04 23:17 | 27.96678 | -82.54103 | 23 ft | 21 kts | 182° |
| 2026-05-04 23:18 | 27.96533 | -82.54109 | 21 ft | 20 kts | 179° |
| 2026-05-04 23:18 | 27.96424 | -82.54110 | 17 ft | 16 kts | 181° |
| 2026-05-04 23:18 | 27.96338 | -82.54145 | 16 ft | 12 kts | 247° |
| 2026-05-04 23:18 | 27.96357 | -82.54220 | 16 ft | 9 kts | 315° |
| 2026-05-04 23:19 | 27.96407 | -82.54237 | 17 ft | 5 kts | 2° |
| 2026-05-04 23:19 | 27.96473 | -82.54232 | 19 ft | 31 kts | 4° |
| 2026-05-04 23:19 | 27.96978 | -82.54216 | 29 ft | 111 kts | 1° |
| 2026-05-04 23:19 | 27.97966 | -82.54185 | 84 ft | 164 kts | 2° |
| 2026-05-04 23:20 | 27.99233 | -82.54147 | 370 ft | 195 kts | 2° |
| 2026-05-04 23:20 | 28.00641 | -82.54106 | 896 ft | 218 kts | 3° |
| 2026-05-04 23:20 | 28.02229 | -82.54036 | 1541 ft | 242 kts | 3° |
| 2026-05-04 23:20 | 28.03953 | -82.54092 | 2427 ft | 254 kts | 355° |
| 2026-05-04 23:21 | 28.05742 | -82.54419 | 3477 ft | 261 kts | 352° |
| 2026-05-04 23:21 | 28.07543 | -82.54806 | 4440 ft | 266 kts | 351° |
| 2026-05-04 23:21 | 28.09376 | -82.55217 | 5221 ft | 270 kts | 350° |
| 2026-05-04 23:21 | 28.11232 | -82.55640 | 6006 ft | 274 kts | 349° |
| 2026-05-04 23:22 | 28.13113 | -82.56070 | 6758 ft | 277 kts | 347° |
| 2026-05-04 23:22 | 28.15015 | -82.56505 | 7502 ft | 280 kts | 346° |
| 2026-05-04 23:22 | 28.16937 | -82.56943 | 8249 ft | 283 kts | 346° |
| 2026-05-04 23:22 | 28.18884 | -82.57381 | 8983 ft | 287 kts | 345° |
| 2026-05-04 23:23 | 28.20885 | -82.57633 | 9718 ft | 293 kts | 354° |
| 2026-05-04 23:23 | 28.22268 | -82.57671 | 10165 ft | 297 kts | 354° |
| 2026-05-04 23:23 | 28.24416 | -82.57738 | 10360 ft | 320 kts | 354° |
| 2026-05-04 23:23 | 28.26721 | -82.57815 | 10602 ft | 339 kts | 354° |
| 2026-05-04 23:24 | 28.29107 | -82.57890 | 11136 ft | 346 kts | 354° |
| 2026-05-04 23:24 | 28.31504 | -82.57957 | 11748 ft | 351 kts | 354° |
| 2026-05-04 23:24 | 28.33988 | -82.58021 | 12396 ft | 355 kts | 354° |
| 2026-05-04 23:24 | 28.36474 | -82.58086 | 13020 ft | 359 kts | 354° |
| 2026-05-04 23:25 | 28.38985 | -82.58150 | 13636 ft | 364 kts | 354° |
| 2026-05-04 23:25 | 28.41529 | -82.58214 | 14205 ft | 368 kts | 354° |
| 2026-05-04 23:25 | 28.44099 | -82.58277 | 14759 ft | 371 kts | 354° |
| 2026-05-04 23:25 | 28.46664 | -82.58338 | 15302 ft | 374 kts | 354° |
| 2026-05-04 23:26 | 28.49275 | -82.58402 | 15853 ft | 378 kts | 353° |
| 2026-05-04 23:26 | 28.51916 | -82.58468 | 16400 ft | 381 kts | 353° |
| 2026-05-04 23:26 | 28.54578 | -82.58536 | 16940 ft | 384 kts | 353° |
| 2026-05-04 23:26 | 28.57260 | -82.58605 | 17487 ft | 387 kts | 353° |
| 2026-05-04 23:27 | 28.59967 | -82.58675 | 18023 ft | 390 kts | 353° |
| 2026-05-04 23:27 | 28.62694 | -82.58746 | 18509 ft | 394 kts | 352° |
| 2026-05-04 23:27 | 28.65447 | -82.58816 | 18981 ft | 396 kts | 352° |
| 2026-05-04 23:27 | 28.68193 | -82.59010 | 19469 ft | 394 kts | 347° |
| 2026-05-04 23:28 | 28.70924 | -82.59390 | 19962 ft | 396 kts | 346° |
| 2026-05-04 23:28 | 28.73667 | -82.59774 | 20467 ft | 398 kts | 346° |
| 2026-05-04 23:28 | 28.76423 | -82.60160 | 20972 ft | 400 kts | 346° |
| 2026-05-04 23:28 | 28.79191 | -82.60544 | 21476 ft | 402 kts | 346° |
| 2026-05-04 23:29 | 28.81974 | -82.60928 | 21969 ft | 404 kts | 346° |
| 2026-05-04 23:29 | 28.84774 | -82.61316 | 22453 ft | 406 kts | 346° |
| 2026-05-04 23:29 | 28.87581 | -82.61709 | 22933 ft | 407 kts | 346° |
| 2026-05-04 23:29 | 28.90403 | -82.62106 | 23403 ft | 409 kts | 346° |
| 2026-05-04 23:30 | 28.93238 | -82.62504 | 23812 ft | 411 kts | 346° |
| 2026-05-04 23:30 | 28.96095 | -82.62905 | 24176 ft | 413 kts | 346° |
| 2026-05-04 23:30 | 28.98952 | -82.63306 | 24539 ft | 415 kts | 346° |
| 2026-05-04 23:30 | 29.01824 | -82.63708 | 24888 ft | 417 kts | 346° |
| 2026-05-04 23:31 | 29.04711 | -82.64111 | 25237 ft | 419 kts | 346° |
| 2026-05-04 23:31 | 29.07570 | -82.64511 | 25565 ft | 420 kts | 345° |
| 2026-05-04 23:31 | 29.10521 | -82.64926 | 25890 ft | 422 kts | 345° |
| 2026-05-04 23:31 | 29.13446 | -82.65340 | 26228 ft | 424 kts | 345° |
| 2026-05-04 23:32 | 29.16338 | -82.65745 | 26538 ft | 426 kts | 345° |
| 2026-05-04 23:32 | 29.19286 | -82.66157 | 26858 ft | 428 kts | 345° |
| 2026-05-04 23:32 | 29.22248 | -82.66573 | 27170 ft | 429 kts | 345° |
| 2026-05-04 23:32 | 29.25218 | -82.66991 | 27484 ft | 431 kts | 345° |
| 2026-05-04 23:33 | 29.28112 | -82.67399 | 27779 ft | 433 kts | 345° |
| 2026-05-04 23:33 | 29.31103 | -82.67823 | 28075 ft | 434 kts | 345° |
| 2026-05-04 23:33 | 29.34110 | -82.68250 | 28366 ft | 436 kts | 345° |
| 2026-05-04 23:33 | 29.37138 | -82.68678 | 28654 ft | 438 kts | 345° |
| 2026-05-04 23:34 | 29.40167 | -82.69106 | 28933 ft | 440 kts | 345° |
| 2026-05-04 23:34 | 29.43253 | -82.69334 | 29201 ft | 450 kts | 352° |
| 2026-05-04 23:34 | 29.46388 | -82.69300 | 29464 ft | 451 kts | 352° |
| 2026-05-04 23:34 | 29.49532 | -82.69271 | 29730 ft | 453 kts | 352° |
| 2026-05-04 23:35 | 29.52692 | -82.69247 | 29967 ft | 454 kts | 352° |
| 2026-05-04 23:35 | 29.55858 | -82.69229 | 30187 ft | 456 kts | 352° |
| 2026-05-04 23:35 | 29.59002 | -82.69214 | 30387 ft | 457 kts | 352° |
| 2026-05-04 23:35 | 29.62233 | -82.69199 | 30602 ft | 458 kts | 352° |
| 2026-05-04 23:36 | 29.65373 | -82.69178 | 30903 ft | 457 kts | 352° |
| 2026-05-04 23:36 | 29.68546 | -82.69152 | 31197 ft | 456 kts | 352° |
| 2026-05-04 23:36 | 29.71712 | -82.69127 | 31497 ft | 454 kts | 351° |
| 2026-05-04 23:36 | 29.74865 | -82.69105 | 31801 ft | 453 kts | 351° |
| 2026-05-04 23:37 | 29.78013 | -82.69085 | 32105 ft | 451 kts | 351° |
| 2026-05-04 23:37 | 29.81146 | -82.69065 | 32394 ft | 450 kts | 351° |
| 2026-05-04 23:37 | 29.84272 | -82.69047 | 32699 ft | 448 kts | 351° |
| 2026-05-04 23:37 | 29.87392 | -82.69030 | 33001 ft | 447 kts | 351° |
| 2026-05-04 23:38 | 29.90495 | -82.69013 | 33294 ft | 446 kts | 351° |
| 2026-05-04 23:38 | 29.93601 | -82.68996 | 33588 ft | 445 kts | 351° |
| 2026-05-04 23:38 | 29.96693 | -82.68977 | 33883 ft | 443 kts | 351° |